Time;durP1;ratioP1;P1;durP2;ratioP2;P2;SDS_P1;SDS_P2;PMS_P1;PMS_P2;Temp;Humidity;BMP_temperature;BMP_pressure;BME280_temperature;BME280_humidity;BME280_pressure;Samples;Min_cycle;Max_cycle;Signal;HPM_P1;HPM_P2
2022/06/14 00:00:53;;;;;;;2.42;0.70;;;11.90;99.90;;;;;;5034197;28;20281;-87
2022/06/14 00:02:25;;;;;;;7.35;1.15;;;11.90;99.90;;;;;;5035444;28;20229;-86
2022/06/14 00:04:51;;;;;;;2.78;0.75;;;11.80;99.90;;;;;;5035083;28;20210;-86
2022/06/14 00:07:17;;;;;;;4.35;1.17;;;11.80;99.90;;;;;;5034383;28;20190;-87
2022/06/14 00:09:44;;;;;;;1.75;1.10;;;11.80;99.90;;;;;;5033570;28;20186;-87
2022/06/14 00:12:11;;;;;;;3.03;1.10;;;11.80;99.90;;;;;;5032793;28;20583;-86
2022/06/14 00:14:36;;;;;;;1.30;0.80;;;11.70;99.90;;;;;;5022963;28;20183;-88
2022/06/14 00:17:02;;;;;;;5.80;1.02;;;11.80;99.90;;;;;;5033000;28;20186;-89
2022/06/14 00:19:27;;;;;;;3.60;0.95;;;11.70;99.90;;;;;;5033268;28;20216;-87
2022/06/14 00:21:53;;;;;;;4.50;1.10;;;11.70;99.90;;;;;;5034395;28;20186;-87
2022/06/14 00:24:19;;;;;;;5.25;1.02;;;11.60;99.90;;;;;;5033592;28;20309;-87
2022/06/14 00:26:44;;;;;;;4.07;1.10;;;11.60;99.90;;;;;;5032534;28;20237;-88
2022/06/14 00:29:10;;;;;;;2.67;1.05;;;11.60;99.90;;;;;;5033100;28;20190;-87
2022/06/14 00:31:36;;;;;;;3.25;1.00;;;11.60;99.90;;;;;;5033192;28;20186;-88
2022/06/14 00:34:02;;;;;;;5.70;1.20;;;11.60;99.90;;;;;;5032675;28;20179;-87
2022/06/14 00:36:33;;;;;;;5.82;1.17;;;11.50;99.90;;;;;;5033272;28;20197;-88
2022/06/14 00:39:04;;;;;;;3.30;1.20;;;11.60;99.90;;;;;;5032611;28;20196;-86
2022/06/14 00:41:51;;;;;;;4.50;1.30;;;11.60;99.90;;;;;;5033145;28;20185;-88
2022/06/14 00:44:29;;;;;;;4.40;1.13;;;11.50;99.90;;;;;;5032794;28;20197;-87
2022/06/14 00:47:04;;;;;;;2.35;1.10;;;11.50;99.90;;;;;;5033737;28;20671;-88
2022/06/14 00:49:46;;;;;;;4.93;1.08;;;11.50;99.90;;;;;;5032972;28;20277;-89
2022/06/14 00:52:27;;;;;;;4.53;1.15;;;11.50;99.90;;;;;;5032899;28;20217;-87
2022/06/14 00:55:01;;;;;;;4.72;0.90;;;11.40;99.90;;;;;;5032204;28;20193;-87
2022/06/14 00:57:32;;;;;;;3.10;0.90;;;11.40;99.90;;;;;;5033936;28;20206;-87
2022/06/14 01:00:11;;;;;;;5.80;1.25;;;11.40;99.90;;;;;;5032106;28;20527;-87
2022/06/14 01:02:52;;;;;;;2.55;0.85;;;11.30;99.90;;;;;;5032533;28;20183;-87
2022/06/14 01:06:05;;;;;;;3.80;1.38;;;11.20;99.90;;;;;;5032215;28;20221;-87
2022/06/14 01:08:19;;;;;;;3.13;1.10;;;11.20;99.90;;;;;;5033374;28;20866;-87
2022/06/14 01:10:47;;;;;;;4.30;1.60;;;11.20;99.90;;;;;;5030741;28;20186;-87
2022/06/14 01:13:16;;;;;;;2.90;1.00;;;11.20;99.90;;;;;;5032369;28;20190;-87
2022/06/14 01:15:42;;;;;;;2.08;1.08;;;11.10;99.90;;;;;;5031618;28;20500;-88
2022/06/14 01:18:13;;;;;;;4.30;1.10;;;11.10;99.90;;;;;;5030506;28;20214;-87
2022/06/14 01:20:39;;;;;;;3.20;1.20;;;11.10;99.90;;;;;;5032226;28;20191;-87
2022/06/14 01:23:08;;;;;;;4.25;1.15;;;11.00;99.90;;;;;;5031928;28;20544;-87
2022/06/14 01:25:41;;;;;;;4.63;1.33;;;11.00;99.90;;;;;;5031967;28;20242;-87
2022/06/14 01:28:08;;;;;;;5.80;1.15;;;10.90;99.90;;;;;;5030133;28;20178;-87
2022/06/14 01:30:41;;;;;;;2.63;0.90;;;11.00;99.90;;;;;;5030845;28;20661;-89
2022/06/14 01:33:11;;;;;;;4.47;1.00;;;11.00;99.90;;;;;;5029815;28;20405;-87
2022/06/14 01:35:40;;;;;;;3.83;1.53;;;11.00;99.90;;;;;;5038654;28;20196;-87
2022/06/14 01:38:11;;;;;;;4.57;1.13;;;11.00;99.90;;;;;;5029028;28;20625;-87
2022/06/14 01:41:04;;;;;;;2.58;1.10;;;11.10;99.90;;;;;;5030264;28;20291;-87
2022/06/14 01:44:08;;;;;;;4.63;1.00;;;11.20;99.90;;;;;;5031207;28;20209;-87
2022/06/14 01:46:56;;;;;;;4.53;1.08;;;11.10;99.90;;;;;;5029739;28;20213;-87
2022/06/14 01:52:32;;;;;;;3.85;1.20;;;11.00;99.90;;;;;;5033337;28;20273;-87
2022/06/14 01:55:22;;;;;;;5.63;1.20;;;10.90;99.90;;;;;;5032575;28;20182;-88
2022/06/14 01:58:26;;;;;;;5.53;1.00;;;10.90;99.90;;;;;;5031725;28;20340;-88
2022/06/14 02:01:06;;;;;;;1.50;0.88;;;10.90;99.90;;;;;;5029220;28;20194;-88
2022/06/14 02:06:38;;;;;;;1.85;1.08;;;10.90;99.90;;;;;;5032122;28;20260;-87
2022/06/14 02:09:20;;;;;;;4.03;1.33;;;10.90;99.90;;;;;;5022300;28;21022;-87
2022/06/14 02:11:46;;;;;;;6.10;1.17;;;10.80;99.90;;;;;;5027960;28;20240;-87
2022/06/14 02:14:30;;;;;;;2.50;1.20;;;10.80;99.90;;;;;;5030603;28;20275;-86
2022/06/14 02:17:04;;;;;;;3.05;1.20;;;10.80;99.90;;;;;;5030595;28;20178;-87
2022/06/14 02:19:37;;;;;;;3.40;1.30;;;10.80;99.90;;;;;;5029733;28;20739;-87
2022/06/14 02:22:27;;;;;;;2.30;1.10;;;10.70;99.90;;;;;;5030942;28;20182;-86
2022/06/14 02:24:59;;;;;;;3.03;1.40;;;10.70;99.90;;;;;;5031532;28;20293;-86
2022/06/14 02:27:44;;;;;;;6.10;1.50;;;10.70;99.90;;;;;;5032900;28;20194;-86
2022/06/14 02:30:21;;;;;;;4.63;1.15;;;10.70;99.90;;;;;;5030727;28;20178;-86
2022/06/14 02:33:05;;;;;;;6.18;1.20;;;10.80;99.90;;;;;;5036219;28;20190;-88
2022/06/14 02:35:52;;;;;;;3.30;1.08;;;10.70;99.90;;;;;;5031117;28;20249;-86
2022/06/14 02:38:25;;;;;;;3.60;1.13;;;10.70;99.90;;;;;;5032674;28;20186;-88
2022/06/14 02:41:23;;;;;;;3.10;1.27;;;10.60;99.90;;;;;;5032159;28;20217;-87
2022/06/14 02:43:59;;;;;;;1.63;1.00;;;10.60;99.90;;;;;;5027765;28;20244;-88
2022/06/14 02:46:33;;;;;;;3.95;1.13;;;10.70;99.90;;;;;;5031292;28;20217;-86
2022/06/14 02:49:07;;;;;;;4.00;1.27;;;10.70;99.90;;;;;;5034386;28;20170;-92
2022/06/14 02:51:43;;;;;;;4.43;1.30;;;10.70;99.90;;;;;;5036292;28;20192;-90
2022/06/14 02:54:31;;;;;;;2.53;1.10;;;10.70;99.90;;;;;;5036141;28;20629;-86
2022/06/14 02:57:27;;;;;;;4.65;1.25;;;10.60;99.90;;;;;;5025380;28;20179;-89
2022/06/14 03:00:08;;;;;;;5.28;1.38;;;10.60;99.90;;;;;;5035822;28;20194;-89
2022/06/14 03:02:50;;;;;;;5.25;1.20;;;10.60;99.90;;;;;;5035182;28;20186;-87
2022/06/14 03:05:30;;;;;;;3.28;1.25;;;10.60;99.90;;;;;;5034762;28;20221;-92
2022/06/14 03:07:59;;;;;;;5.55;1.27;;;10.60;99.90;;;;;;5035574;28;20197;-86
2022/06/14 03:10:37;;;;;;;3.17;1.02;;;10.60;99.90;;;;;;5035579;28;20273;-88
2022/06/14 03:13:27;;;;;;;6.28;1.55;;;10.60;99.90;;;;;;5028524;28;20240;-92
2022/06/14 03:16:19;;;;;;;3.80;1.17;;;10.50;99.90;;;;;;5035802;28;20182;-91
2022/06/14 03:18:57;;;;;;;2.70;1.10;;;10.50;99.90;;;;;;5029992;28;20625;-87
2022/06/14 03:21:35;;;;;;;4.63;1.25;;;10.50;99.90;;;;;;5034521;28;20233;-87
2022/06/14 03:24:10;;;;;;;3.60;1.17;;;10.50;99.90;;;;;;5034597;28;20244;-88
2022/06/14 03:26:58;;;;;;;4.10;1.33;;;10.40;99.90;;;;;;5034904;28;20221;-89
2022/06/14 03:29:51;;;;;;;4.60;1.40;;;10.40;99.90;;;;;;5035020;28;20193;-87
2022/06/14 03:32:44;;;;;;;3.83;1.17;;;10.40;99.90;;;;;;5035496;28;20179;-88
2022/06/14 03:35:19;;;;;;;1.60;1.03;;;10.40;99.90;;;;;;5033248;28;20569;-92
2022/06/14 03:37:45;;;;;;;4.57;1.20;;;10.40;99.90;;;;;;5035076;28;20190;-88
2022/06/14 03:40:15;;;;;;;6.57;1.60;;;10.30;99.90;;;;;;5036155;28;20617;-87
2022/06/14 03:42:41;;;;;;;2.85;1.10;;;10.40;99.90;;;;;;5036268;28;20621;-90
2022/06/14 03:45:09;;;;;;;3.53;1.30;;;10.40;99.90;;;;;;5034298;28;20190;-86
2022/06/14 03:47:35;;;;;;;5.65;1.23;;;10.40;99.90;;;;;;5034277;28;20198;-86
2022/06/14 03:50:09;;;;;;;3.45;1.30;;;10.40;99.90;;;;;;5033904;28;20182;-86
2022/06/14 03:52:56;;;;;;;2.67;1.27;;;10.50;99.90;;;;;;5030405;28;20186;-87
2022/06/14 03:55:42;;;;;;;3.00;1.20;;;10.50;99.90;;;;;;5026118;28;20189;-90
2022/06/14 03:58:34;;;;;;;2.97;1.10;;;10.50;99.90;;;;;;5036988;28;20182;-85
2022/06/14 04:01:28;;;;;;;2.20;1.10;;;10.50;99.90;;;;;;5028862;28;20178;-91
2022/06/14 04:04:10;;;;;;;1.90;1.20;;;10.60;99.90;;;;;;5031072;28;20179;-85
2022/06/14 04:07:00;;;;;;;3.40;1.45;;;10.70;99.90;;;;;;5032242;28;20210;-86
2022/06/14 04:09:45;;;;;;;5.13;1.52;;;10.70;99.90;;;;;;5023501;28;20186;-86
2022/06/14 04:12:52;;;;;;;5.00;1.30;;;10.70;99.90;;;;;;5031347;28;20186;-86
2022/06/14 04:15:36;;;;;;;3.43;1.47;;;10.90;99.90;;;;;;5034073;28;20632;-86
2022/06/14 04:18:38;;;;;;;6.65;1.42;;;11.00;99.90;;;;;;5034119;28;20190;-89
2022/06/14 04:21:20;;;;;;;3.73;1.40;;;11.10;99.90;;;;;;5033558;28;20535;-87
2022/06/14 04:23:56;;;;;;;5.93;1.50;;;11.20;99.90;;;;;;5035586;28;20311;-89
2022/06/14 04:27:02;;;;;;;4.35;1.60;;;11.30;99.90;;;;;;5034906;28;20213;-92
2022/06/14 04:29:50;;;;;;;7.88;2.00;;;11.40;99.90;;;;;;5033915;28;20193;-88
2022/06/14 04:32:27;;;;;;;3.60;1.65;;;11.50;99.90;;;;;;5035316;28;20755;-88
2022/06/14 04:35:27;;;;;;;5.28;1.80;;;11.50;99.90;;;;;;5033652;28;20282;-92
2022/06/14 04:38:23;;;;;;;5.43;1.60;;;11.60;99.90;;;;;;5032570;28;20187;-87
2022/06/14 04:41:03;;;;;;;8.02;1.85;;;11.70;99.90;;;;;;5032718;28;20710;-91
2022/06/14 04:43:47;;;;;;;5.15;1.55;;;11.70;99.90;;;;;;5033516;28;20194;-87
2022/06/14 04:46:29;;;;;;;7.43;1.70;;;11.70;99.90;;;;;;5033369;28;20332;-91
2022/06/14 04:49:02;;;;;;;6.93;1.80;;;11.80;99.90;;;;;;5033242;28;20186;-89
2022/06/14 04:51:39;;;;;;;6.82;1.63;;;11.80;99.90;;;;;;5034033;28;20686;-88
2022/06/14 04:54:15;;;;;;;9.55;1.40;;;11.80;99.90;;;;;;5033621;28;20530;-88
2022/06/14 04:56:57;;;;;;;5.40;1.80;;;11.90;99.90;;;;;;5033474;28;20186;-86
2022/06/14 04:59:32;;;;;;;3.20;1.40;;;12.00;99.90;;;;;;5033376;28;20205;-91
2022/06/14 05:02:16;;;;;;;5.15;1.58;;;12.00;99.90;;;;;;5034206;28;20186;-92
2022/06/14 05:04:57;;;;;;;5.32;2.30;;;12.00;99.90;;;;;;5032751;28;20189;-87
2022/06/14 05:07:41;;;;;;;5.80;1.90;;;12.10;99.90;;;;;;5032753;28;20297;-88
2022/06/14 05:10:12;;;;;;;6.40;1.80;;;12.10;99.90;;;;;;5033562;28;20178;-88
2022/06/14 05:13:08;;;;;;;10.57;1.92;;;12.20;99.90;;;;;;5032845;28;20273;-88
2022/06/14 05:15:45;;;;;;;5.22;1.88;;;12.30;99.90;;;;;;5031936;28;20199;-88
2022/06/14 05:18:22;;;;;;;4.63;1.73;;;12.40;99.90;;;;;;5031593;28;20546;-89
2022/06/14 05:21:18;;;;;;;4.95;1.85;;;12.60;99.90;;;;;;5028422;28;20189;-88
2022/06/14 05:23:53;;;;;;;6.38;1.77;;;12.70;99.90;;;;;;5019394;28;20230;-91
2022/06/14 05:26:56;;;;;;;6.95;1.70;;;12.70;99.90;;;;;;5032639;28;20264;-88
2022/06/14 05:29:57;;;;;;;12.63;2.00;;;12.80;99.90;;;;;;5031586;28;20178;-88
2022/06/14 05:32:40;;;;;;;4.97;1.85;;;12.70;99.90;;;;;;5015610;28;20189;-87
2022/06/14 05:35:27;;;;;;;5.35;1.88;;;12.80;99.90;;;;;;5030443;28;20218;-86
2022/06/14 05:38:05;;;;;;;4.50;1.52;;;12.90;99.90;;;;;;5033182;28;20174;-87
2022/06/14 05:40:52;;;;;;;5.75;1.30;;;13.10;99.90;;;;;;5034334;28;20173;-86
2022/06/14 05:43:32;;;;;;;10.02;1.95;;;13.10;99.90;;;;;;5033662;28;20175;-86
2022/06/14 05:46:21;;;;;;;3.85;1.52;;;13.10;99.90;;;;;;5032493;28;20699;-87
2022/06/14 05:48:52;;;;;;;6.60;1.52;;;13.10;99.90;;;;;;5034214;28;20167;-87
2022/06/14 05:51:25;;;;;;;6.15;1.90;;;13.20;99.90;;;;;;5034023;28;20173;-87
2022/06/14 05:53:58;;;;;;;9.95;1.65;;;13.30;99.90;;;;;;5032863;28;20185;-86
2022/06/14 05:56:32;;;;;;;7.28;1.63;;;13.40;99.90;;;;;;5034009;28;20462;-85
2022/06/14 05:59:16;;;;;;;8.05;1.65;;;13.40;99.90;;;;;;5033589;28;20273;-86
2022/06/14 06:01:58;;;;;;;6.90;1.80;;;13.50;99.90;;;;;;5029185;28;20566;-87
2022/06/14 06:04:37;;;;;;;4.40;1.40;;;13.50;99.90;;;;;;5031735;28;20510;-86
2022/06/14 06:07:07;;;;;;;6.90;1.63;;;13.50;99.90;;;;;;5032697;28;20212;-87
2022/06/14 06:09:38;;;;;;;8.43;1.55;;;13.50;99.90;;;;;;5033956;28;20178;-87
2022/06/14 06:12:11;;;;;;;5.65;1.45;;;13.50;99.90;;;;;;5033947;28;20167;-87
2022/06/14 06:14:43;;;;;;;9.90;1.90;;;13.60;99.90;;;;;;5033964;28;20537;-88
2022/06/14 06:17:21;;;;;;;4.85;1.58;;;13.70;99.90;;;;;;5032619;28;20270;-87
2022/06/14 06:20:19;;;;;;;3.38;1.40;;;13.90;99.90;;;;;;5033716;28;20305;-88
2022/06/14 06:22:54;;;;;;;4.22;1.60;;;14.20;99.90;;;;;;5034489;28;20242;-86
2022/06/14 06:25:27;;;;;;;6.15;1.40;;;14.30;99.90;;;;;;5037405;28;20170;-86
2022/06/14 06:28:31;;;;;;;8.02;1.85;;;14.50;99.90;;;;;;5036312;28;20240;-86
2022/06/14 06:31:05;;;;;;;6.43;1.52;;;14.50;99.90;;;;;;5016425;28;20232;-86
2022/06/14 06:33:36;;;;;;;9.45;1.65;;;14.50;99.90;;;;;;5017738;28;20172;-87
2022/06/14 06:36:08;;;;;;;3.80;1.35;;;14.50;99.90;;;;;;5035740;28;20205;-86
2022/06/14 06:39:01;;;;;;;4.45;1.33;;;14.50;99.90;;;;;;5036263;28;20265;-84
2022/06/14 06:41:50;;;;;;;6.28;1.70;;;14.50;99.90;;;;;;5036288;28;20629;-86
2022/06/14 06:44:19;;;;;;;10.43;1.67;;;14.50;99.90;;;;;;5044535;28;20186;-87
2022/06/14 06:46:53;;;;;;;7.47;1.48;;;14.50;99.90;;;;;;5057301;28;20202;-86
2022/06/14 06:49:29;;;;;;;5.78;1.55;;;14.60;99.90;;;;;;5036586;28;20186;-86
2022/06/14 06:51:59;;;;;;;6.75;1.45;;;14.50;99.90;;;;;;5035512;28;20174;-85
2022/06/14 06:54:44;;;;;;;8.77;1.52;;;14.60;99.90;;;;;;5036545;28;20179;-87
2022/06/14 06:57:16;;;;;;;8.68;1.70;;;14.70;99.90;;;;;;5035491;28;20190;-85
2022/06/14 06:59:46;;;;;;;7.43;1.90;;;14.70;99.90;;;;;;5036794;28;20169;-85
2022/06/14 07:02:28;;;;;;;5.32;1.80;;;14.80;99.90;;;;;;5035978;28;20175;-85
2022/06/14 07:05:03;;;;;;;8.57;2.00;;;14.90;99.90;;;;;;5036377;28;20629;-87
2022/06/14 07:07:41;;;;;;;5.93;1.73;;;14.90;99.90;;;;;;5035439;28;20211;-87
2022/06/14 07:10:19;;;;;;;3.15;1.55;;;15.10;99.90;;;;;;5035632;28;20613;-86
2022/06/14 07:13:13;;;;;;;5.90;1.70;;;15.40;99.90;;;;;;5034452;28;20186;-86
2022/06/14 07:15:57;;;;;;;6.63;2.35;;;15.70;99.90;;;;;;5035156;28;20182;-86
2022/06/14 07:19:06;;;;;;;6.15;1.80;;;16.00;99.90;;;;;;5036581;28;20167;-87
2022/06/14 07:21:37;;;;;;;8.93;2.03;;;16.20;99.90;;;;;;5028200;28;20186;-86
2022/06/14 07:24:13;;;;;;;5.55;2.00;;;16.30;99.90;;;;;;5034915;28;20262;-86
2022/06/14 07:26:54;;;;;;;5.70;1.55;;;16.30;99.90;;;;;;5035253;28;20206;-86
2022/06/14 07:29:50;;;;;;;5.43;1.40;;;16.30;99.90;;;;;;5036625;28;20212;-88
2022/06/14 07:32:31;;;;;;;7.05;1.70;;;16.30;99.90;;;;;;5036615;28;20175;-86
2022/06/14 07:35:00;;;;;;;4.88;1.33;;;16.10;99.90;;;;;;5035265;28;20505;-88
2022/06/14 07:37:38;;;;;;;3.28;1.50;;;16.10;99.90;;;;;;5036869;28;20198;-91
2022/06/14 07:40:21;;;;;;;8.25;1.40;;;16.20;99.90;;;;;;5036697;28;20585;-88
2022/06/14 07:42:47;;;;;;;2.58;0.90;;;16.40;99.90;;;;;;5034980;28;20181;-88
2022/06/14 07:45:24;;;;;;;4.78;1.17;;;16.60;99.90;;;;;;5034830;28;20179;-87
2022/06/14 07:47:54;;;;;;;4.40;1.15;;;16.70;99.90;;;;;;5035056;28;20187;-85
2022/06/14 07:50:38;;;;;;;4.75;1.00;;;16.80;99.90;;;;;;5034890;28;20175;-87
2022/06/14 07:53:09;;;;;;;2.85;1.02;;;16.80;99.90;;;;;;5034590;28;20186;-87
2022/06/14 07:55:40;;;;;;;5.05;1.20;;;17.00;99.90;;;;;;5034358;28;20186;-85
2022/06/14 07:58:12;;;;;;;3.78;1.13;;;17.00;99.90;;;;;;5033482;28;20617;-85
2022/06/14 08:04:02;;;;;;;6.57;1.20;;;17.10;99.00;;;;;;5028669;28;20319;-85
2022/06/14 08:06:39;;;;;;;7.07;1.52;;;17.10;99.20;;;;;;5034791;28;20562;-87
2022/06/14 08:09:36;;;;;;;6.43;1.70;;;17.30;98.50;;;;;;5034155;28;20170;-86
2022/06/14 08:12:10;;;;;;;4.80;1.35;;;17.20;98.60;;;;;;5013602;28;20336;-85
2022/06/14 08:15:01;;;;;;;4.28;1.10;;;17.10;99.90;;;;;;5035351;28;20155;-86
2022/06/14 08:17:43;;;;;;;2.75;1.20;;;17.20;99.80;;;;;;5011201;28;20216;-86
2022/06/14 08:20:22;;;;;;;5.13;1.02;;;17.10;98.00;;;;;;5035129;28;20667;-85
2022/06/14 08:22:54;;;;;;;4.80;1.30;;;17.00;98.70;;;;;;5034953;28;20244;-86
2022/06/14 08:25:29;;;;;;;2.50;1.00;;;16.80;98.20;;;;;;5033917;28;20178;-85
2022/06/14 08:27:59;;;;;;;4.80;1.10;;;16.60;99.90;;;;;;5033985;28;20680;-85
2022/06/14 08:30:33;;;;;;;3.60;1.02;;;16.70;98.90;;;;;;5033958;28;20182;-85
2022/06/14 08:33:23;;;;;;;5.25;1.30;;;16.90;97.40;;;;;;5033811;28;20181;-85
2022/06/14 08:35:55;;;;;;;7.40;1.42;;;17.20;97.20;;;;;;5014849;28;20174;-85
2022/06/14 08:38:33;;;;;;;8.05;1.20;;;17.40;98.20;;;;;;5015275;28;20199;-85
2022/06/14 08:41:34;;;;;;;6.00;1.45;;;17.50;99.10;;;;;;5014152;28;20179;-85
2022/06/14 08:44:08;;;;;;;2.65;0.90;;;17.40;96.80;;;;;;5013824;28;20175;-85
2022/06/14 08:47:11;;;;;;;2.70;1.35;;;17.10;98.40;;;;;;5017825;28;20218;-84
2022/06/14 08:50:04;;;;;;;4.65;1.30;;;16.90;98.30;;;;;;5033670;28;20182;-84
2022/06/14 08:52:48;;;;;;;2.90;0.95;;;17.10;98.40;;;;;;5033491;28;20205;-85
2022/06/14 08:55:22;;;;;;;4.25;1.23;;;17.60;98.60;;;;;;5034496;28;20525;-85
2022/06/14 08:58:25;;;;;;;6.00;1.65;;;18.10;98.30;;;;;;5033469;28;20185;-84
2022/06/14 09:01:09;;;;;;;5.00;0.98;;;18.30;96.50;;;;;;5033268;28;20182;-84
2022/06/14 09:03:41;;;;;;;3.88;1.20;;;18.20;95.50;;;;;;5033606;28;20182;-84
2022/06/14 09:06:44;;;;;;;4.65;1.15;;;18.10;95.60;;;;;;5033301;28;20202;-84
2022/06/14 09:09:31;;;;;;;3.70;1.10;;;17.70;95.20;;;;;;5013350;28;20179;-85
2022/06/14 09:12:23;;;;;;;6.32;1.08;;;17.60;95.30;;;;;;5012017;28;20258;-85
2022/06/14 09:14:58;;;;;;;4.55;1.60;;;17.60;95.80;;;;;;5013646;28;20187;-84
2022/06/14 09:17:58;;;;;;;2.50;0.95;;;17.50;96.80;;;;;;5013349;28;20265;-85
2022/06/14 09:20:40;;;;;;;4.75;0.95;;;17.80;97.60;;;;;;5013008;28;20168;-85
2022/06/14 09:23:17;;;;;;;3.53;1.02;;;18.20;97.40;;;;;;5017413;28;20222;-85
2022/06/14 09:26:21;;;;;;;3.17;1.10;;;18.40;95.20;;;;;;5020448;28;20202;-92
2022/06/14 09:29:12;;;;;;;5.70;1.45;;;18.20;95.20;;;;;;5022701;28;20212;-86
2022/06/14 09:31:53;;;;;;;4.03;1.08;;;18.00;96.30;;;;;;5015578;28;20190;-85
2022/06/14 09:35:02;;;;;;;5.05;1.23;;;18.10;96.20;;;;;;5020294;28;21549;-84
2022/06/14 09:37:41;;;;;;;4.18;1.10;;;18.30;95.30;;;;;;5012954;28;20302;-83
2022/06/14 09:40:24;;;;;;;4.97;1.20;;;18.40;95.50;;;;;;5014040;28;20170;-83
2022/06/14 09:42:56;;;;;;;8.15;1.10;;;18.80;97.10;;;;;;5013063;28;20178;-85
2022/06/14 09:45:36;;;;;;;6.32;1.00;;;19.10;93.30;;;;;;5012875;28;20290;-86
2022/06/14 09:48:19;;;;;;;5.20;1.25;;;19.10;92.00;;;;;;5012849;28;20505;-84
2022/06/14 09:50:58;;;;;;;8.13;1.10;;;19.20;93.80;;;;;;5012873;28;20175;-85
2022/06/14 09:53:53;;;;;;;5.97;1.10;;;19.20;92.70;;;;;;5019989;28;20189;-85
2022/06/14 09:56:52;;;;;;;3.40;1.30;;;19.00;93.80;;;;;;5030964;28;20202;-84
2022/06/14 09:59:27;;;;;;;6.53;1.70;;;18.80;94.10;;;;;;5031488;28;20190;-85
2022/06/14 10:02:17;;;;;;;2.30;0.80;;;18.40;94.00;;;;;;5032363;28;20170;-84
2022/06/14 10:05:01;;;;;;;3.38;0.88;;;18.10;93.40;;;;;;5033456;28;20218;-83
2022/06/14 10:07:39;;;;;;;2.88;0.90;;;18.30;94.70;;;;;;5032379;28;20202;-85
2022/06/14 10:10:21;;;;;;;3.63;1.20;;;18.90;95.70;;;;;;5032398;28;20179;-84
2022/06/14 10:13:05;;;;;;;2.58;0.90;;;19.40;94.50;;;;;;5033753;28;20667;-85
2022/06/14 10:16:07;;;;;;;2.97;1.13;;;19.90;93.00;;;;;;5032115;28;20182;-88
2022/06/14 10:18:48;;;;;;;5.53;1.20;;;19.90;91.70;;;;;;5009944;28;20189;-85
2022/06/14 10:21:22;;;;;;;7.43;1.20;;;19.50;92.50;;;;;;5032406;28;20519;-85
2022/06/14 10:24:13;;;;;;;3.67;1.08;;;19.30;93.50;;;;;;5031947;28;20287;-84
2022/06/14 10:30:01;;;;;;;3.88;1.20;;;19.00;94.50;;;;;;5033264;28;20178;-85
2022/06/14 10:33:02;;;;;;;3.13;0.82;;;19.20;93.90;;;;;;5033027;28;20190;-87
2022/06/14 10:35:33;;;;;;;2.90;0.90;;;19.80;94.30;;;;;;5004603;28;20534;-89
2022/06/14 10:38:43;;;;;;;5.25;1.40;;;20.20;91.40;;;;;;5012913;28;20520;-86
2022/06/14 10:41:17;;;;;;;6.03;1.85;;;20.00;91.60;;;;;;5001850;28;20191;-84
2022/06/14 10:43:54;;;;;;;5.85;1.30;;;19.60;92.60;;;;;;5013563;28;20297;-85
2022/06/14 10:46:22;;;;;;;4.30;1.25;;;19.20;93.20;;;;;;5012090;28;20233;-85
2022/06/14 10:49:05;;;;;;;3.63;1.02;;;19.20;93.50;;;;;;5013453;28;20228;-85
2022/06/14 10:51:50;;;;;;;4.43;1.00;;;19.60;92.80;;;;;;5011966;28;20183;-86
2022/06/14 10:54:42;;;;;;;3.35;1.00;;;20.00;90.50;;;;;;5026283;28;20190;-83
2022/06/14 10:57:26;;;;;;;4.28;1.02;;;19.90;92.20;;;;;;5033245;28;20676;-85
2022/06/14 11:00:10;;;;;;;4.78;1.17;;;19.60;91.20;;;;;;5031919;28;20258;-84
2022/06/14 11:03:01;;;;;;;3.60;1.05;;;19.30;92.20;;;;;;5031926;28;20174;-85
2022/06/14 11:06:03;;;;;;;2.15;1.00;;;19.20;91.60;;;;;;5032272;28;20186;-84
2022/06/14 11:08:44;;;;;;;3.30;1.10;;;19.20;90.60;;;;;;5033172;28;20194;-84
2022/06/14 11:11:20;;;;;;;4.97;1.30;;;19.10;91.50;;;;;;5036337;28;20162;-85
2022/06/14 11:14:07;;;;;;;3.35;1.13;;;19.20;91.90;;;;;;5036341;28;20288;-84
2022/06/14 11:17:04;;;;;;;3.03;1.00;;;19.30;91.10;;;;;;5036596;28;20158;-84
2022/06/14 11:19:55;;;;;;;3.25;1.08;;;19.10;91.50;;;;;;5034058;28;20190;-84
2022/06/14 11:22:39;;;;;;;3.70;1.42;;;18.90;92.30;;;;;;5035112;28;20177;-84
2022/06/14 11:25:34;;;;;;;4.15;1.17;;;18.90;91.40;;;;;;5035050;28;20202;-85
2022/06/14 11:28:18;;;;;;;3.60;1.20;;;19.30;92.20;;;;;;5034980;28;20724;-84
2022/06/14 11:30:56;;;;;;;6.43;1.10;;;19.40;92.20;;;;;;5036349;28;20858;-84
2022/06/14 11:33:50;;;;;;;4.45;1.15;;;19.40;93.50;;;;;;5036148;28;20597;-84
2022/06/14 11:36:29;;;;;;;9.13;1.48;;;19.90;93.30;;;;;;5018840;28;20968;-83
2022/06/14 11:39:32;;;;;;;3.40;1.00;;;20.50;92.30;;;;;;5036220;28;20265;-85
2022/06/14 11:42:13;;;;;;;5.13;1.45;;;20.70;91.50;;;;;;5014997;28;20622;-84
2022/06/14 11:44:58;;;;;;;3.65;1.20;;;20.60;91.70;;;;;;5014686;28;20291;-84
2022/06/14 11:47:49;;;;;;;3.20;0.90;;;20.70;89.90;;;;;;5027146;28;20209;-84
2022/06/14 11:50:53;;;;;;;4.25;1.38;;;20.50;90.70;;;;;;5032908;28;20175;-90
2022/06/14 11:53:46;;;;;;;4.43;1.25;;;20.50;89.70;;;;;;5035618;28;20217;-83
2022/06/14 11:56:17;;;;;;;2.50;0.85;;;20.40;90.60;;;;;;5035361;28;20695;-84
2022/06/14 11:59:01;;;;;;;5.10;1.48;;;20.00;90.90;;;;;;5035806;28;20163;-83
2022/06/14 12:01:54;;;;;;;7.55;1.27;;;19.70;91.60;;;;;;5035587;28;20174;-85
2022/06/14 12:04:41;;;;;;;4.80;1.20;;;19.60;91.20;;;;;;5033954;28;20198;-83
2022/06/14 12:07:27;;;;;;;4.88;1.60;;;19.90;92.30;;;;;;5034284;28;20660;-83
2022/06/14 12:09:59;;;;;;;3.25;1.20;;;20.30;90.70;;;;;;5034130;28;20273;-82
2022/06/14 12:12:50;;;;;;;3.95;0.95;;;20.60;90.90;;;;;;5035475;28;20614;-83
2022/06/14 12:15:42;;;;;;;4.82;1.23;;;20.70;92.80;;;;;;5033844;28;20186;-83
2022/06/14 12:18:12;;;;;;;2.35;0.90;;;21.10;90.70;;;;;;5033890;28;20202;-82
2022/06/14 12:21:13;;;;;;;2.35;1.02;;;21.20;91.40;;;;;;5026332;28;20181;-84
2022/06/14 12:23:50;;;;;;;2.28;1.13;;;21.50;90.40;;;;;;5025097;28;20230;-84
2022/06/14 12:26:39;;;;;;;2.95;1.10;;;21.70;89.70;;;;;;5027160;28;20216;-82
2022/06/14 12:29:33;;;;;;;8.38;1.50;;;22.00;89.10;;;;;;5033765;28;20171;-84
2022/06/14 12:32:18;;;;;;;2.33;0.82;;;22.10;87.80;;;;;;5027890;28;20195;-82
2022/06/14 12:35:13;;;;;;;3.97;1.30;;;22.00;86.50;;;;;;5032865;28;20190;-82
2022/06/14 12:38:05;;;;;;;4.38;1.30;;;21.80;90.10;;;;;;5032603;28;20688;-82
2022/06/14 12:40:38;;;;;;;6.30;1.25;;;21.50;88.30;;;;;;5034939;28;20245;-83
2022/06/14 12:43:26;;;;;;;4.13;1.30;;;21.50;90.50;;;;;;5016309;28;20176;-82
2022/06/14 12:46:23;;;;;;;7.00;1.30;;;21.80;89.80;;;;;;5008232;28;20261;-82
2022/06/14 12:48:56;;;;;;;4.00;1.20;;;22.00;87.40;;;;;;5018617;28;20205;-82
2022/06/14 12:51:38;;;;;;;5.75;1.25;;;22.30;90.00;;;;;;5034186;28;20614;-83
2022/06/14 12:54:13;;;;;;;5.20;1.38;;;22.60;87.00;;;;;;5024702;28;20181;-82
2022/06/14 12:56:56;;;;;;;4.13;1.33;;;22.80;86.40;;;;;;5023118;28;20190;-83
2022/06/14 12:59:57;;;;;;;3.20;1.13;;;22.80;86.10;;;;;;5014958;28;20202;-82
2022/06/14 13:02:30;;;;;;;5.70;1.17;;;22.20;85.10;;;;;;4970246;28;20187;-83
2022/06/14 13:05:05;;;;;;;4.00;1.58;;;22.10;87.70;;;;;;5028275;28;20198;-83
2022/06/14 13:07:57;;;;;;;2.50;1.13;;;21.90;86.00;;;;;;5031781;28;20278;-86
2022/06/14 13:10:42;;;;;;;5.32;1.55;;;21.60;83.90;;;;;;5033373;28;20194;-84
2022/06/14 13:13:35;;;;;;;3.10;1.08;;;21.20;84.10;;;;;;5034312;28;20594;-83
2022/06/14 13:16:13;;;;;;;4.63;1.35;;;20.90;86.80;;;;;;5031472;28;20687;-84
2022/06/14 13:18:38;;;;;;;3.10;1.10;;;21.00;90.00;;;;;;5014382;28;20257;-83
2022/06/14 13:21:26;;;;;;;4.70;1.13;;;21.30;90.20;;;;;;5012877;28;20270;-82
2022/06/14 13:24:27;;;;;;;2.55;0.95;;;21.70;88.20;;;;;;5012967;28;20250;-84
2022/06/14 13:27:05;;;;;;;2.55;1.00;;;22.10;82.50;;;;;;4972895;28;20551;-83
2022/06/14 13:30:02;;;;;;;3.88;1.00;;;22.30;82.30;;;;;;5006042;28;20187;-87
2022/06/14 13:32:48;;;;;;;9.85;1.30;;;22.50;83.90;;;;;;5027281;28;20221;-82
2022/06/14 13:35:23;;;;;;;4.47;1.50;;;22.40;85.90;;;;;;5031972;28;20194;-83
2022/06/14 13:38:06;;;;;;;4.25;1.20;;;22.40;84.60;;;;;;5033038;28;20236;-82
2022/06/14 13:40:41;;;;;;;3.92;1.23;;;22.20;84.90;;;;;;5033524;28;20168;-82
2022/06/14 13:43:33;;;;;;;5.22;1.30;;;22.20;86.70;;;;;;5032681;28;20505;-83
2022/06/14 13:46:33;;;;;;;3.17;1.42;;;22.10;84.80;;;;;;5033723;28;20194;-84
2022/06/14 13:49:06;;;;;;;3.53;1.30;;;22.00;85.20;;;;;;5033637;28;20193;-83
2022/06/14 13:51:46;;;;;;;3.35;1.08;;;21.60;84.40;;;;;;5033262;28;20170;-84
2022/06/14 13:54:45;;;;;;;5.38;1.45;;;21.30;85.20;;;;;;5033150;28;20187;-83
2022/06/14 13:57:39;;;;;;;5.40;1.30;;;21.00;85.70;;;;;;5024557;28;20502;-82
2022/06/14 14:00:18;;;;;;;3.55;1.05;;;21.20;88.40;;;;;;5032292;28;20221;-83
2022/06/14 14:02:58;;;;;;;4.35;1.20;;;21.50;90.10;;;;;;5033533;28;20189;-83
2022/06/14 14:05:37;;;;;;;6.50;1.48;;;21.90;87.00;;;;;;5031898;28;20174;-83
2022/06/14 14:08:23;;;;;;;5.63;1.25;;;22.10;85.10;;;;;;5032441;28;20525;-82
2022/06/14 14:10:54;;;;;;;7.22;1.30;;;22.10;86.50;;;;;;5032422;28;20182;-83